createdAt,value
2018-09-10T00:02:15.672Z,15.48
2018-09-10T00:04:42.584Z,15.53
2018-09-10T00:07:09.481Z,15.55
2018-09-10T00:09:36.393Z,15.58
2018-09-10T00:12:03.301Z,15.60
2018-09-10T00:14:30.205Z,15.62
2018-09-10T00:16:57.122Z,15.61
2018-09-10T00:19:24.064Z,15.61
2018-09-10T00:21:50.997Z,15.63
2018-09-10T00:24:17.902Z,15.64
2018-09-10T00:26:45.113Z,15.65
2018-09-10T00:29:12.040Z,15.61
2018-09-10T00:31:38.939Z,15.62
2018-09-10T00:34:05.873Z,15.58
2018-09-10T00:36:32.779Z,15.56
2018-09-10T00:38:59.676Z,15.56
2018-09-10T00:41:26.578Z,15.58
2018-09-10T00:43:53.472Z,15.61
2018-09-10T00:46:20.384Z,15.63
2018-09-10T00:48:47.304Z,15.56
2018-09-10T00:51:14.224Z,15.65
2018-09-10T00:53:41.113Z,15.66
2018-09-10T00:56:08.021Z,15.66
2018-09-10T00:58:34.917Z,15.68
2018-09-10T01:01:01.837Z,15.69
2018-09-10T01:03:28.733Z,15.71
2018-09-10T01:05:55.685Z,15.70
2018-09-10T01:08:22.819Z,15.74
2018-09-10T01:10:49.713Z,15.77
2018-09-10T01:13:16.635Z,15.78
2018-09-10T01:15:43.565Z,15.82
2018-09-10T01:18:10.464Z,15.82
2018-09-10T01:20:37.372Z,15.85
2018-09-10T01:23:04.274Z,15.84
2018-09-10T01:25:31.165Z,15.85
2018-09-10T01:27:58.279Z,15.86
2018-09-10T01:30:25.198Z,15.88
2018-09-10T01:32:52.121Z,15.90
2018-09-10T01:35:19.051Z,15.90
2018-09-10T01:37:46.053Z,15.93
2018-09-10T01:40:12.966Z,15.99
2018-09-10T01:42:39.875Z,16.04
2018-09-10T01:45:06.813Z,16.09
2018-09-10T01:47:33.745Z,16.12
2018-09-10T01:50:00.673Z,16.16
2018-09-10T01:52:28.156Z,16.18
2018-09-10T01:54:55.079Z,16.20
2018-09-10T01:57:22.017Z,16.24
2018-09-10T01:59:48.933Z,16.24
2018-09-10T02:02:16.089Z,16.23
2018-09-10T02:04:43.073Z,16.24
2018-09-10T02:07:10.035Z,16.26
2018-09-10T02:09:36.965Z,16.29
2018-09-10T02:12:03.917Z,16.33
2018-09-10T02:14:30.854Z,16.35
2018-09-10T02:16:57.797Z,16.37
2018-09-10T02:19:24.673Z,16.40
2018-09-10T02:21:51.604Z,16.40
2018-09-10T02:24:18.524Z,16.41
2018-09-10T02:26:45.422Z,16.35
2018-09-10T02:29:12.421Z,16.32
2018-09-10T02:31:39.292Z,16.26
2018-09-10T02:34:06.240Z,16.18
2018-09-10T02:36:33.156Z,16.12
2018-09-10T02:39:00.077Z,16.05
2018-09-10T02:41:26.994Z,16.02
2018-09-10T02:43:53.915Z,15.95
2018-09-10T02:46:20.848Z,15.85
2018-09-10T02:48:47.768Z,15.84
2018-09-10T02:51:14.707Z,15.86
2018-09-10T02:53:41.652Z,15.86
2018-09-10T02:56:08.590Z,15.87
2018-09-10T02:58:35.510Z,15.90
2018-09-10T03:01:02.425Z,15.90
2018-09-10T03:03:29.353Z,15.97
2018-09-10T03:05:56.275Z,16.00
2018-09-10T03:08:23.198Z,16.03
2018-09-10T03:10:50.129Z,16.06
2018-09-10T03:13:17.029Z,16.06
2018-09-10T03:15:44.005Z,16.10
2018-09-10T03:18:10.945Z,16.14
2018-09-10T03:20:38.645Z,16.19
2018-09-10T03:23:05.980Z,16.18
2018-09-10T03:25:32.883Z,16.20
2018-09-10T03:27:59.801Z,16.18
2018-09-10T03:30:26.716Z,16.18
2018-09-10T03:32:53.625Z,16.16
2018-09-10T03:35:20.536Z,16.13
2018-09-10T03:37:47.461Z,16.13
2018-09-10T03:40:14.417Z,16.13
2018-09-10T03:42:41.356Z,16.07
2018-09-10T03:45:08.284Z,16.05
2018-09-10T03:47:35.229Z,16.01
2018-09-10T03:50:02.165Z,15.97
2018-09-10T03:52:29.069Z,15.91
2018-09-10T03:54:55.997Z,15.87
2018-09-10T03:57:22.944Z,15.86
2018-09-10T03:59:49.892Z,15.85
2018-09-10T04:02:16.815Z,15.87
2018-09-10T04:04:43.736Z,15.93
2018-09-10T04:07:10.698Z,16.01
2018-09-10T04:09:37.648Z,16.05
2018-09-10T04:12:04.805Z,16.09
2018-09-10T04:14:31.692Z,16.10
2018-09-10T04:16:58.649Z,16.13
2018-09-10T04:19:25.581Z,16.16
2018-09-10T04:21:52.497Z,16.20
2018-09-10T04:24:19.404Z,16.19
2018-09-10T04:26:46.317Z,16.20
2018-09-10T04:29:13.255Z,16.20
2018-09-10T04:31:40.213Z,16.21
2018-09-10T04:34:07.118Z,16.19
2018-09-10T04:36:34.032Z,16.18
2018-09-10T04:39:00.941Z,16.18
2018-09-10T04:41:34.745Z,16.16
2018-09-10T04:44:01.650Z,16.13
2018-09-10T04:46:28.576Z,16.10
2018-09-10T04:48:55.494Z,16.12
2018-09-10T04:51:22.437Z,16.08
2018-09-10T04:53:49.355Z,16.08
2018-09-10T04:56:16.278Z,16.08
2018-09-10T04:58:43.193Z,16.08
2018-09-10T05:01:10.168Z,16.12
2018-09-10T05:03:37.087Z,16.12
2018-09-10T05:06:04.057Z,16.11
2018-09-10T05:08:30.992Z,16.14
2018-09-10T05:10:57.932Z,16.13
2018-09-10T05:13:24.852Z,16.10
2018-09-10T05:15:51.756Z,16.10
2018-09-10T05:18:18.681Z,16.09
2018-09-10T05:20:45.592Z,16.10
2018-09-10T05:23:12.516Z,16.10
2018-09-10T05:25:39.417Z,16.12
2018-09-10T05:28:06.432Z,16.11
2018-09-10T05:30:33.285Z,16.12
2018-09-10T05:33:00.196Z,16.13
2018-09-10T05:35:27.101Z,16.15
2018-09-10T05:37:54.033Z,16.17
2018-09-10T05:40:20.937Z,16.22
2018-09-10T05:42:47.896Z,16.23
2018-09-10T05:45:14.873Z,16.22
2018-09-10T05:47:41.880Z,16.21
2018-09-10T05:50:09.881Z,16.23
2018-09-10T05:52:36.810Z,16.23
2018-09-10T05:55:03.789Z,16.23
2018-09-10T05:57:30.712Z,16.23
2018-09-10T05:59:57.607Z,16.23
2018-09-10T06:02:24.520Z,16.23
2018-09-10T06:04:51.417Z,16.23
2018-09-10T06:07:18.336Z,16.23
2018-09-10T06:09:45.236Z,16.21
2018-09-10T06:12:12.144Z,16.21
2018-09-10T06:14:39.051Z,16.21
2018-09-10T06:17:05.984Z,16.10
2018-09-10T06:19:32.877Z,15.93
2018-09-10T06:21:59.837Z,15.86
2018-09-10T06:24:26.793Z,15.80
2018-09-10T06:26:53.704Z,15.80
2018-09-10T06:29:20.618Z,15.80
2018-09-10T06:31:47.553Z,15.82
2018-09-10T06:34:14.563Z,15.87
2018-09-10T06:36:41.417Z,15.90
2018-09-10T06:39:09.832Z,15.90
2018-09-10T06:41:36.732Z,15.94
2018-09-10T06:44:03.644Z,15.97
2018-09-10T06:46:30.551Z,15.99
2018-09-10T06:48:57.459Z,16.03
2018-09-10T06:51:24.348Z,16.05
2018-09-10T06:53:51.256Z,16.11
2018-09-10T06:56:18.160Z,16.14
2018-09-10T06:58:45.064Z,16.16
2018-09-10T07:01:11.981Z,16.23
2018-09-10T07:03:38.916Z,16.31
2018-09-10T07:06:05.872Z,16.38
2018-09-10T07:08:32.794Z,16.46
2018-09-10T07:10:59.696Z,16.51
2018-09-10T07:13:26.593Z,16.53
2018-09-10T07:15:53.804Z,16.55
2018-09-10T07:18:20.750Z,16.58
2018-09-10T07:20:47.712Z,16.56
2018-09-10T07:23:14.621Z,16.59
2018-09-10T07:25:41.619Z,16.56
2018-09-10T07:28:08.556Z,16.59
2018-09-10T07:30:35.467Z,16.54
2018-09-10T07:33:02.388Z,16.51
2018-09-10T07:35:29.329Z,16.53
2018-09-10T07:37:56.258Z,16.55
2018-09-10T07:40:23.212Z,16.60
2018-09-10T07:42:50.161Z,16.69
2018-09-10T07:45:17.107Z,16.63
2018-09-10T07:47:44.016Z,16.60
2018-09-10T07:50:10.948Z,16.62
2018-09-10T07:52:37.849Z,16.64
2018-09-10T07:55:04.845Z,16.85
2018-09-10T07:57:31.788Z,16.96
2018-09-10T07:59:58.728Z,16.93
2018-09-10T08:02:25.632Z,17.12
2018-09-10T08:04:52.560Z,17.30
2018-09-10T08:07:19.487Z,17.58
2018-09-10T08:09:46.443Z,18.01
2018-09-10T08:12:13.352Z,17.94
2018-09-10T08:14:40.281Z,17.71
2018-09-10T08:17:07.200Z,17.61
2018-09-10T08:19:34.168Z,17.93
2018-09-10T08:22:01.081Z,18.38
2018-09-10T08:24:28.040Z,18.77
2018-09-10T08:26:54.938Z,18.96
2018-09-10T08:29:21.861Z,19.18
2018-09-10T08:31:48.798Z,19.43
2018-09-10T08:34:15.732Z,19.45
2018-09-10T08:36:42.685Z,19.75
2018-09-10T08:39:09.716Z,19.83
2018-09-10T08:41:36.643Z,20.03
2018-09-10T08:44:03.620Z,20.29
2018-09-10T08:46:30.549Z,20.52
2018-09-10T08:48:57.486Z,20.75
2018-09-10T08:51:24.424Z,20.91
2018-09-10T08:53:51.337Z,20.50
2018-09-10T08:56:18.561Z,20.10
2018-09-10T08:58:45.151Z,19.73
2018-09-10T09:01:12.053Z,19.57
2018-09-10T09:03:38.961Z,19.43
2018-09-10T09:06:05.974Z,19.34
2018-09-10T09:08:32.844Z,19.47
2018-09-10T09:10:59.792Z,19.52
2018-09-10T09:13:26.728Z,19.36
2018-09-10T09:15:53.649Z,19.16
2018-09-10T09:18:20.604Z,19.01
2018-09-10T09:20:47.549Z,19.12
2018-09-10T09:23:14.505Z,19.41
2018-09-10T09:25:41.465Z,19.76
2018-09-10T09:28:08.392Z,20.23
2018-09-10T09:30:35.328Z,20.81
2018-09-10T09:33:02.243Z,20.60
2018-09-10T09:35:34.863Z,20.35
2018-09-10T09:38:07.619Z,20.53
2018-09-10T09:40:40.302Z,20.79
2018-09-10T09:43:12.961Z,20.75
2018-09-10T09:45:45.544Z,21.14
2018-09-10T09:48:12.437Z,21.64
2018-09-10T09:50:39.329Z,21.31
2018-09-10T09:53:06.253Z,20.93
2018-09-10T09:55:33.325Z,20.94
2018-09-10T09:58:00.237Z,21.21
2018-09-10T10:00:32.888Z,21.72
2018-09-10T10:03:05.590Z,22.21
2018-09-10T10:05:32.516Z,22.52
2018-09-10T10:07:59.457Z,21.71
2018-09-10T10:10:26.377Z,21.16
2018-09-10T10:12:53.288Z,20.52
2018-09-10T10:15:20.479Z,20.21
2018-09-10T10:17:47.429Z,19.94
2018-09-10T10:20:14.332Z,19.81
2018-09-10T10:22:41.288Z,19.78
2018-09-10T10:25:08.196Z,20.13
2018-09-10T10:27:35.109Z,20.64
2018-09-10T10:30:02.060Z,21.03
2018-09-10T10:32:28.985Z,21.44
2018-09-10T10:34:55.926Z,21.68
2018-09-10T10:37:22.846Z,21.62
2018-09-10T10:39:49.744Z,21.33
2018-09-10T10:42:16.706Z,21.29
2018-09-10T10:44:43.653Z,21.61
2018-09-10T10:47:10.624Z,21.19
2018-09-10T10:49:37.520Z,21.02
2018-09-10T10:52:04.555Z,21.41
2018-09-10T10:54:31.461Z,21.84
2018-09-10T10:56:58.368Z,22.85
2018-09-10T10:59:25.312Z,22.88
2018-09-10T11:01:52.224Z,22.99
2018-09-10T11:04:19.215Z,23.09
2018-09-10T11:06:46.396Z,22.81
2018-09-10T11:09:13.304Z,22.60
2018-09-10T11:11:40.200Z,22.06
2018-09-10T11:14:07.115Z,21.69
2018-09-10T11:16:34.077Z,21.56
2018-09-10T11:19:00.992Z,21.44
2018-09-10T11:21:27.885Z,21.30
2018-09-10T11:23:54.804Z,20.92
2018-09-10T11:26:21.709Z,20.85
2018-09-10T11:28:48.681Z,20.92
2018-09-10T11:31:15.580Z,20.79
2018-09-10T11:33:42.484Z,20.81
2018-09-10T11:36:09.406Z,20.94
2018-09-10T11:38:36.305Z,21.07
2018-09-10T11:41:03.229Z,21.11
2018-09-10T11:43:30.149Z,21.27
2018-09-10T11:45:57.034Z,21.81
2018-09-10T11:48:23.933Z,22.08
2018-09-10T11:50:50.853Z,22.32
2018-09-10T11:53:17.754Z,22.34
2018-09-10T11:55:44.719Z,22.56
2018-09-10T11:58:11.695Z,22.86
2018-09-10T12:00:39.134Z,22.96
2018-09-10T12:03:06.064Z,22.73
2018-09-10T12:05:32.981Z,23.38
2018-09-10T12:07:59.910Z,23.07
2018-09-10T12:10:26.866Z,22.73
2018-09-10T12:12:53.777Z,22.46
2018-09-10T12:15:20.672Z,22.17
2018-09-10T12:17:47.604Z,22.21
2018-09-10T12:20:14.521Z,22.11
2018-09-10T12:22:41.412Z,21.36
2018-09-10T12:25:08.316Z,21.12
2018-09-10T12:27:35.250Z,20.81
2018-09-10T12:30:09.068Z,20.96
2018-09-10T12:32:36.001Z,21.35
2018-09-10T12:35:02.930Z,21.57
2018-09-10T12:37:29.845Z,21.74
2018-09-10T12:39:56.757Z,21.97
2018-09-10T12:42:23.659Z,21.71
2018-09-10T12:44:50.548Z,21.53
2018-09-10T12:47:17.436Z,21.35
2018-09-10T12:49:44.328Z,21.20
2018-09-10T12:52:11.228Z,21.21
2018-09-10T12:54:38.124Z,21.29
2018-09-10T12:57:05.596Z,21.50
2018-09-10T12:59:32.525Z,21.74
2018-09-10T13:01:59.445Z,21.90
2018-09-10T13:04:26.377Z,21.68
2018-09-10T13:06:53.273Z,21.57
2018-09-10T13:09:20.206Z,21.33
2018-09-10T13:11:47.124Z,21.06
2018-09-10T13:14:14.037Z,21.08
2018-09-10T13:16:40.958Z,21.07
2018-09-10T13:19:08.184Z,21.18
2018-09-10T13:21:35.112Z,21.31
2018-09-10T13:24:02.036Z,21.11
2018-09-10T13:26:28.951Z,20.94
2018-09-10T13:28:55.940Z,20.69
2018-09-10T13:31:22.879Z,20.60
2018-09-10T13:33:49.938Z,20.74
2018-09-10T13:36:16.881Z,20.60
2018-09-10T13:38:43.780Z,20.51
2018-09-10T13:41:10.737Z,20.42
2018-09-10T13:43:37.648Z,20.36
2018-09-10T13:46:04.612Z,20.49
2018-09-10T13:48:31.536Z,20.45
2018-09-10T13:50:58.505Z,20.27
2018-09-10T13:53:25.413Z,20.26
2018-09-10T13:55:52.366Z,20.22
2018-09-10T13:58:19.288Z,20.18
2018-09-10T14:00:46.250Z,20.30
2018-09-10T14:03:13.172Z,20.30
2018-09-10T14:05:40.106Z,20.30
2018-09-10T14:08:07.304Z,20.29
2018-09-10T14:10:34.998Z,20.08
2018-09-10T14:13:01.923Z,19.97
2018-09-10T14:15:33.972Z,19.86
2018-09-10T14:18:01.119Z,19.62
2018-09-10T14:20:28.029Z,20.12
2018-09-10T14:22:54.971Z,20.14
2018-09-10T14:25:21.922Z,20.15
2018-09-10T14:27:48.861Z,20.03
2018-09-10T14:30:15.786Z,19.95
2018-09-10T14:32:42.706Z,19.95
2018-09-10T14:35:09.699Z,19.85
2018-09-10T14:37:36.658Z,19.89
2018-09-10T14:40:03.950Z,19.74
2018-09-10T14:42:30.916Z,19.65
2018-09-10T14:44:57.833Z,19.46
2018-09-10T14:47:24.766Z,19.32
2018-09-10T14:49:51.763Z,19.35
2018-09-10T14:52:18.680Z,19.31
2018-09-10T14:54:45.589Z,19.23
2018-09-10T14:57:12.500Z,19.23
2018-09-10T14:59:39.416Z,19.21
2018-09-10T15:02:06.352Z,19.25
2018-09-10T15:04:40.070Z,19.21
2018-09-10T15:07:07.006Z,19.04
2018-09-10T15:09:33.916Z,18.96
2018-09-10T15:12:00.887Z,18.89
2018-09-10T15:14:27.883Z,19.10
2018-09-10T15:16:54.824Z,19.07
2018-09-10T15:19:21.776Z,19.11
2018-09-10T15:21:48.701Z,18.94
2018-09-10T15:24:15.604Z,18.91
2018-09-10T15:26:42.514Z,18.92
2018-09-10T15:29:09.500Z,18.79
2018-09-10T15:31:36.425Z,18.61
2018-09-10T15:34:03.373Z,18.58
2018-09-10T15:36:30.296Z,18.61
2018-09-10T15:38:57.228Z,18.80
2018-09-10T15:41:24.148Z,18.79
2018-09-10T15:43:51.064Z,18.63
2018-09-10T15:46:17.972Z,18.54
2018-09-10T15:48:44.944Z,18.55
2018-09-10T15:51:11.915Z,18.49
2018-09-10T15:53:38.784Z,18.47
2018-09-10T15:56:05.792Z,18.43
2018-09-10T15:58:32.697Z,18.41
2018-09-10T16:00:59.622Z,18.27
2018-09-10T16:03:26.560Z,18.27
2018-09-10T16:05:53.478Z,18.29
2018-09-10T16:08:20.529Z,18.21
2018-09-10T16:10:47.476Z,18.16
2018-09-10T16:13:14.456Z,18.18
2018-09-10T16:15:41.389Z,18.09
2018-09-10T16:18:08.323Z,18.09
2018-09-10T16:20:35.236Z,18.01
2018-09-10T16:23:02.192Z,18.02
2018-09-10T16:25:29.153Z,18.02
2018-09-10T16:27:56.084Z,18.00
2018-09-10T16:30:23.010Z,18.00
2018-09-10T16:32:49.976Z,18.03
2018-09-10T16:35:16.893Z,18.02
2018-09-10T16:37:43.810Z,17.99
2018-09-10T16:40:10.739Z,17.90
2018-09-10T16:42:37.697Z,18.00
2018-09-10T16:45:04.973Z,17.88
2018-09-10T16:47:31.856Z,17.83
2018-09-10T16:49:59.806Z,17.94
2018-09-10T16:52:28.183Z,17.97
2018-09-10T16:54:55.236Z,18.01
2018-09-10T16:57:22.197Z,18.05
2018-09-10T16:59:49.172Z,18.07
2018-09-10T17:02:16.089Z,18.06
2018-09-10T17:04:43.128Z,18.03
2018-09-10T17:07:10.057Z,18.03
2018-09-10T17:09:37.004Z,17.97
2018-09-10T17:12:03.943Z,17.90
2018-09-10T17:14:30.980Z,17.87
2018-09-10T17:16:58.072Z,17.82
2018-09-10T17:19:25.023Z,17.75
2018-09-10T17:21:51.974Z,17.72
2018-09-10T17:24:18.904Z,17.66
2018-09-10T17:26:45.848Z,17.68
2018-09-10T17:29:12.796Z,17.65
2018-09-10T17:31:39.704Z,17.62
2018-09-10T17:34:06.660Z,17.61
2018-09-10T17:36:33.579Z,17.52
2018-09-10T17:39:00.518Z,17.49
2018-09-10T17:41:27.444Z,17.45
2018-09-10T17:43:54.377Z,17.40
2018-09-10T17:46:21.283Z,17.42
2018-09-10T17:48:48.984Z,17.34
2018-09-10T17:51:15.904Z,17.30
2018-09-10T17:53:42.833Z,17.33
2018-09-10T17:56:09.792Z,17.23
2018-09-10T17:58:36.721Z,17.22
2018-09-10T18:01:03.675Z,17.18
2018-09-10T18:03:30.613Z,17.14
2018-09-10T18:05:57.535Z,17.09
2018-09-10T18:08:24.672Z,17.04
2018-09-10T18:10:51.686Z,16.97
2018-09-10T18:13:18.842Z,16.92
2018-09-10T18:15:45.942Z,16.86
2018-09-10T18:18:12.876Z,16.83
2018-09-10T18:20:39.834Z,16.79
2018-09-10T18:23:06.794Z,16.77
2018-09-10T18:25:33.744Z,16.75
2018-09-10T18:28:00.687Z,16.81
2018-09-10T18:30:27.661Z,16.81
2018-09-10T18:32:54.716Z,16.81
2018-09-10T18:35:21.718Z,16.78
2018-09-10T18:37:48.664Z,16.80
2018-09-10T18:40:15.635Z,16.76
2018-09-10T18:42:42.544Z,16.70
2018-09-10T18:45:09.503Z,16.67
2018-09-10T18:47:36.433Z,16.66
2018-09-10T18:50:03.396Z,16.64
2018-09-10T18:52:30.330Z,16.65
2018-09-10T18:54:57.324Z,16.66
2018-09-10T18:57:24.272Z,16.62
2018-09-10T18:59:51.233Z,16.60
2018-09-10T19:02:18.164Z,16.54
2018-09-10T19:04:45.136Z,16.54
2018-09-10T19:07:12.063Z,16.53
2018-09-10T19:09:39.016Z,16.51
2018-09-10T19:12:06.133Z,16.46
2018-09-10T19:14:33.056Z,16.45
2018-09-10T19:17:00.001Z,16.45
2018-09-10T19:19:26.920Z,16.43
2018-09-10T19:21:53.878Z,16.39
2018-09-10T19:24:20.869Z,16.37
2018-09-10T19:26:47.809Z,16.35
2018-09-10T19:29:14.943Z,16.37
2018-09-10T19:31:41.878Z,16.37
2018-09-10T19:34:08.797Z,16.36
2018-09-10T19:36:35.747Z,16.37
2018-09-10T19:39:03.808Z,16.36
2018-09-10T19:41:30.756Z,16.33
2018-09-10T19:43:57.704Z,16.30
2018-09-10T19:46:24.642Z,16.26
2018-09-10T19:48:52.414Z,16.24
2018-09-10T19:51:19.378Z,16.13
2018-09-10T19:53:47.076Z,16.10
2018-09-10T19:56:14.252Z,16.01
2018-09-10T19:58:41.236Z,15.98
2018-09-10T20:01:08.227Z,15.93
2018-09-10T20:03:35.169Z,15.89
2018-09-10T20:06:02.184Z,15.85
2018-09-10T20:08:29.113Z,15.82
2018-09-10T20:10:56.025Z,15.75
2018-09-10T20:13:22.973Z,15.67
2018-09-10T20:15:49.872Z,15.64
2018-09-10T20:18:16.763Z,15.60
2018-09-10T20:20:44.888Z,15.56
2018-09-10T20:23:11.831Z,15.49
2018-09-10T20:25:41.077Z,15.32
2018-09-10T20:28:08.023Z,15.37
2018-09-10T20:30:35.003Z,15.35
2018-09-10T20:33:01.871Z,15.32
2018-09-10T20:35:29.522Z,14.83
2018-09-10T20:37:56.676Z,15.25
2018-09-10T20:40:23.665Z,15.24
2018-09-10T20:42:51.780Z,15.24
2018-09-10T20:45:18.733Z,15.27
2018-09-10T20:47:46.527Z,15.31
2018-09-10T20:50:13.505Z,15.32
2018-09-10T20:52:40.409Z,15.34
2018-09-10T20:55:07.330Z,15.35
2018-09-10T20:57:34.256Z,15.33
2018-09-10T21:00:01.165Z,15.31
2018-09-10T21:02:28.076Z,15.29
2018-09-10T21:04:55.269Z,15.30
2018-09-10T21:07:22.224Z,15.29
2018-09-10T21:09:49.395Z,15.28
2018-09-10T21:12:16.356Z,15.27
2018-09-10T21:14:43.285Z,15.31
2018-09-10T21:17:10.353Z,15.32
2018-09-10T21:19:37.348Z,15.30
2018-09-10T21:22:04.317Z,15.28
2018-09-10T21:24:31.228Z,15.28
2018-09-10T21:26:58.199Z,15.27
2018-09-10T21:29:25.129Z,15.25
2018-09-10T21:31:52.077Z,15.26
2018-09-10T21:34:18.993Z,15.25
2018-09-10T21:36:45.900Z,15.25
2018-09-10T21:39:12.852Z,15.22
2018-09-10T21:41:39.766Z,15.22
2018-09-10T21:44:07.178Z,15.19
2018-09-10T21:46:34.145Z,15.18
2018-09-10T21:49:01.092Z,15.18
2018-09-10T21:51:28.211Z,15.18
2018-09-10T21:53:55.152Z,15.17
2018-09-10T21:56:22.085Z,15.16
2018-09-10T21:58:49.021Z,15.15
2018-09-10T22:01:15.965Z,15.14
2018-09-10T22:03:42.897Z,15.15
2018-09-10T22:06:09.817Z,15.16
2018-09-10T22:08:36.777Z,15.16
2018-09-10T22:11:03.716Z,15.14
2018-09-10T22:13:30.647Z,15.14
2018-09-10T22:15:57.576Z,15.12
2018-09-10T22:18:24.516Z,15.03
2018-09-10T22:20:51.461Z,15.01
2018-09-10T22:23:18.405Z,14.99
2018-09-10T22:25:45.344Z,15.01
2018-09-10T22:28:12.273Z,15.01
2018-09-10T22:30:39.183Z,15.01
2018-09-10T22:33:06.522Z,15.02
2018-09-10T22:35:33.461Z,15.04
2018-09-10T22:38:00.372Z,15.06
2018-09-10T22:40:27.333Z,15.06
2018-09-10T22:42:54.257Z,15.04
2018-09-10T22:45:21.278Z,15.01
2018-09-10T22:47:48.329Z,14.97
2018-09-10T22:50:15.556Z,14.96
2018-09-10T22:52:42.471Z,14.96
2018-09-10T22:55:09.400Z,14.95
2018-09-10T22:57:36.329Z,14.95
2018-09-10T23:00:03.362Z,14.93
2018-09-10T23:02:30.296Z,14.92
2018-09-10T23:04:57.308Z,14.90
2018-09-10T23:07:24.291Z,14.91
2018-09-10T23:09:51.296Z,14.93
2018-09-10T23:12:18.205Z,14.95
2018-09-10T23:14:45.129Z,14.93
2018-09-10T23:17:12.052Z,14.91
2018-09-10T23:19:38.977Z,14.92
2018-09-10T23:22:05.897Z,14.95
2018-09-10T23:24:32.873Z,14.96
2018-09-10T23:26:59.853Z,14.98
2018-09-10T23:29:26.851Z,14.98
2018-09-10T23:31:53.762Z,14.97
2018-09-10T23:34:20.720Z,14.97
2018-09-10T23:36:47.629Z,14.97
2018-09-10T23:39:14.580Z,14.96
2018-09-10T23:41:41.528Z,14.97
2018-09-10T23:44:08.464Z,14.96
2018-09-10T23:46:35.408Z,14.95
2018-09-10T23:49:02.461Z,14.96
2018-09-10T23:51:29.379Z,14.95
2018-09-10T23:53:56.311Z,14.97
2018-09-10T23:56:23.253Z,14.95
2018-09-10T23:58:50.188Z,14.98
